createdAt,value
2022-08-22T00:00:57.719Z,0.00
2022-08-22T00:01:57.723Z,0.00
2022-08-22T00:03:00.127Z,0.00
2022-08-22T00:03:57.643Z,0.00
2022-08-22T00:04:57.631Z,0.00
2022-08-22T00:05:57.629Z,0.00
2022-08-22T00:06:57.648Z,0.00
2022-08-22T00:07:57.993Z,0.00
2022-08-22T00:08:57.598Z,0.00
2022-08-22T00:09:57.607Z,0.00
2022-08-22T00:10:57.599Z,0.00
2022-08-22T00:11:57.591Z,0.00
2022-08-22T00:12:57.593Z,0.00
2022-08-22T00:14:01.145Z,0.00
2022-08-22T00:14:57.569Z,0.00
2022-08-22T00:15:57.573Z,0.00
2022-08-22T00:16:57.758Z,0.00
2022-08-22T00:17:57.835Z,0.00
2022-08-22T00:18:57.597Z,0.00
2022-08-22T00:19:57.561Z,0.00
2022-08-22T00:20:57.536Z,0.00
2022-08-22T00:21:57.552Z,0.00
2022-08-22T00:22:57.523Z,0.00
2022-08-22T00:23:57.536Z,0.00
2022-08-22T00:24:57.517Z,0.00
2022-08-22T00:25:57.526Z,0.00
2022-08-22T00:26:57.519Z,0.00
2022-08-22T00:27:57.739Z,0.00
2022-08-22T00:28:57.517Z,0.00
2022-08-22T00:29:57.494Z,0.00
2022-08-22T00:30:57.704Z,0.00
2022-08-22T00:31:57.709Z,0.00
2022-08-22T00:32:57.484Z,0.00
2022-08-22T00:33:57.506Z,0.00
2022-08-22T00:34:57.487Z,0.00
2022-08-22T00:35:57.486Z,0.00
2022-08-22T00:36:57.453Z,0.00
2022-08-22T00:37:57.694Z,0.00
2022-08-22T00:38:57.437Z,0.00
2022-08-22T00:39:57.461Z,0.00
2022-08-22T00:40:57.440Z,0.00
2022-08-22T00:41:57.458Z,0.00
2022-08-22T00:42:57.426Z,0.00
2022-08-22T00:43:57.417Z,0.00
2022-08-22T00:44:57.411Z,0.00
2022-08-22T00:45:57.426Z,0.00
2022-08-22T00:46:57.377Z,0.00
2022-08-22T00:47:57.662Z,0.00
2022-08-22T00:48:57.386Z,0.00
2022-08-22T00:49:57.397Z,0.00
2022-08-22T00:50:57.346Z,0.00
2022-08-22T00:51:57.360Z,0.00
2022-08-22T00:52:57.361Z,0.00
2022-08-22T00:53:57.338Z,0.00
2022-08-22T00:54:57.366Z,0.00
2022-08-22T00:55:57.335Z,0.00
2022-08-22T00:56:57.329Z,0.00
2022-08-22T00:57:57.463Z,0.00
2022-08-22T00:58:57.345Z,0.00
2022-08-22T00:59:57.325Z,0.00
2022-08-22T01:00:57.457Z,0.00
2022-08-22T01:01:57.301Z,0.00
2022-08-22T01:02:57.316Z,0.00
2022-08-22T01:03:57.303Z,0.00
2022-08-22T01:04:57.274Z,0.00
2022-08-22T01:05:57.288Z,0.00
2022-08-22T01:06:57.277Z,0.00
2022-08-22T01:07:57.510Z,0.00
2022-08-22T01:08:57.227Z,0.00
2022-08-22T01:09:57.243Z,0.00
2022-08-22T01:10:57.242Z,0.00
2022-08-22T01:11:57.244Z,0.00
2022-08-22T01:12:57.213Z,0.00
2022-08-22T01:13:57.210Z,0.00
2022-08-22T01:14:57.213Z,0.00
2022-08-22T01:15:57.203Z,0.00
2022-08-22T01:16:57.198Z,0.00
2022-08-22T01:17:57.400Z,0.00
2022-08-22T01:18:57.183Z,0.00
2022-08-22T01:19:57.165Z,0.00
2022-08-22T01:20:57.186Z,0.00
2022-08-22T01:21:57.164Z,0.00
2022-08-22T01:22:57.175Z,0.00
2022-08-22T01:23:57.160Z,0.00
2022-08-22T01:24:57.167Z,0.00
2022-08-22T01:25:57.149Z,0.00
2022-08-22T01:26:57.454Z,0.00
2022-08-22T01:27:57.248Z,0.00
2022-08-22T01:28:57.117Z,0.00
2022-08-22T01:29:57.355Z,0.00
2022-08-22T01:30:57.123Z,0.00
2022-08-22T01:31:57.101Z,0.00
2022-08-22T01:32:57.360Z,0.00
2022-08-22T01:33:57.127Z,0.00
2022-08-22T01:34:57.102Z,0.00
2022-08-22T01:35:57.110Z,0.00
2022-08-22T01:36:57.073Z,0.00
2022-08-22T01:37:57.256Z,0.00
2022-08-22T01:38:57.064Z,0.00
2022-08-22T01:39:57.152Z,0.00
2022-08-22T01:40:57.044Z,0.00
2022-08-22T01:41:57.029Z,0.00
2022-08-22T01:42:57.097Z,0.00
2022-08-22T01:43:59.948Z,0.00
2022-08-22T01:44:57.021Z,0.00
2022-08-22T01:45:56.991Z,0.00
2022-08-22T01:46:57.019Z,0.00
2022-08-22T01:47:57.074Z,0.00
2022-08-22T01:48:56.991Z,0.00
2022-08-22T01:49:56.989Z,0.00
2022-08-22T01:50:56.987Z,0.00
2022-08-22T01:51:57.004Z,0.00
2022-08-22T01:52:56.960Z,0.00
2022-08-22T01:53:56.998Z,0.00
2022-08-22T01:54:56.962Z,0.00
2022-08-22T01:55:56.968Z,0.00
2022-08-22T01:56:56.923Z,0.00
2022-08-22T01:57:57.027Z,0.00
2022-08-22T01:58:56.968Z,0.00
2022-08-22T01:59:56.907Z,0.00
2022-08-22T02:00:56.959Z,0.00
2022-08-22T02:01:56.930Z,0.00
2022-08-22T02:02:56.944Z,0.00
2022-08-22T02:03:56.908Z,0.00
2022-08-22T02:04:56.926Z,0.00
2022-08-22T02:05:56.897Z,0.00
2022-08-22T02:06:56.875Z,0.00
2022-08-22T02:07:56.939Z,0.00
2022-08-22T02:08:56.860Z,0.00
2022-08-22T02:09:56.872Z,0.00
2022-08-22T02:10:56.880Z,0.00
2022-08-22T02:11:56.905Z,0.00
2022-08-22T02:12:56.845Z,0.00
2022-08-22T02:13:56.872Z,0.00
2022-08-22T02:14:56.844Z,0.00
2022-08-22T02:15:56.858Z,0.00
2022-08-22T02:16:56.841Z,0.00
2022-08-22T02:17:56.888Z,0.00
2022-08-22T02:18:56.873Z,0.00
2022-08-22T02:19:56.830Z,0.00
2022-08-22T02:20:56.817Z,0.00
2022-08-22T02:21:56.783Z,0.00
2022-08-22T02:22:56.792Z,0.00
2022-08-22T02:23:56.753Z,0.00
2022-08-22T02:24:56.791Z,0.00
2022-08-22T02:25:56.748Z,0.00
2022-08-22T02:26:56.740Z,0.00
2022-08-22T02:27:56.785Z,0.00
2022-08-22T02:28:57.859Z,0.00
2022-08-22T02:29:56.736Z,0.00
2022-08-22T02:30:56.748Z,0.00
2022-08-22T02:31:56.754Z,0.00
2022-08-22T02:32:56.735Z,0.00
2022-08-22T02:33:56.717Z,0.00
2022-08-22T02:34:56.718Z,0.00
2022-08-22T02:35:56.700Z,0.00
2022-08-22T02:36:58.226Z,0.00
2022-08-22T02:37:56.803Z,0.00
2022-08-22T02:38:56.662Z,0.00
2022-08-22T02:39:56.756Z,0.00
2022-08-22T02:40:56.659Z,0.00
2022-08-22T02:41:56.655Z,0.00
2022-08-22T02:42:56.636Z,0.00
2022-08-22T02:43:56.651Z,0.00
2022-08-22T02:44:56.622Z,0.00
2022-08-22T02:45:56.612Z,0.00
2022-08-22T02:46:56.618Z,0.00
2022-08-22T02:47:56.675Z,0.00
2022-08-22T02:48:56.610Z,0.00
2022-08-22T02:49:56.603Z,0.00
2022-08-22T02:50:56.599Z,0.00
2022-08-22T02:51:56.574Z,0.00
2022-08-22T02:52:56.563Z,0.00
2022-08-22T02:53:56.583Z,0.00
2022-08-22T02:54:56.571Z,0.00
2022-08-22T02:55:56.548Z,0.00
2022-08-22T02:56:56.564Z,0.00
2022-08-22T02:57:56.540Z,0.00
2022-08-22T02:58:59.215Z,0.00
2022-08-22T02:59:56.546Z,0.00
2022-08-22T03:00:56.570Z,0.00
2022-08-22T03:01:56.508Z,0.00
2022-08-22T03:02:56.525Z,0.00
2022-08-22T03:03:56.487Z,0.00
2022-08-22T03:04:56.524Z,0.00
2022-08-22T03:06:00.534Z,0.00
2022-08-22T03:06:56.498Z,0.00
2022-08-22T03:07:56.460Z,0.00
2022-08-22T03:08:56.501Z,0.00
2022-08-22T03:09:56.683Z,0.00
2022-08-22T03:10:56.445Z,0.00
2022-08-22T03:11:56.465Z,0.00
2022-08-22T03:12:57.654Z,0.00
2022-08-22T03:13:56.459Z,0.00
2022-08-22T03:14:56.438Z,0.00
2022-08-22T03:15:56.412Z,0.00
2022-08-22T03:16:56.420Z,0.00
2022-08-22T03:17:56.452Z,0.00
2022-08-22T03:18:56.412Z,0.00
2022-08-22T03:19:56.399Z,0.00
2022-08-22T03:20:56.378Z,0.00
2022-08-22T03:21:56.396Z,0.00
2022-08-22T03:22:56.362Z,0.00
2022-08-22T03:23:56.389Z,0.00
2022-08-22T03:24:56.377Z,0.00
2022-08-22T03:25:56.360Z,0.00
2022-08-22T03:26:56.336Z,0.00
2022-08-22T03:27:56.344Z,0.00
2022-08-22T03:29:00.212Z,0.00
2022-08-22T03:29:56.328Z,0.00
2022-08-22T03:30:56.325Z,0.00
2022-08-22T03:31:56.304Z,0.00
2022-08-22T03:32:56.337Z,0.00
2022-08-22T03:33:56.312Z,0.00
2022-08-22T03:34:56.285Z,0.00
2022-08-22T03:35:56.300Z,0.00
2022-08-22T03:36:56.299Z,0.00
2022-08-22T03:37:56.307Z,0.00
2022-08-22T03:38:56.253Z,0.00
2022-08-22T03:39:56.309Z,0.00
2022-08-22T03:40:56.283Z,0.00
2022-08-22T03:41:56.248Z,0.00
2022-08-22T03:42:56.255Z,0.00
2022-08-22T03:43:56.232Z,4.00
2022-08-22T03:44:56.210Z,4.00
2022-08-22T03:45:56.240Z,0.00
2022-08-22T03:46:56.210Z,4.00
2022-08-22T03:47:56.185Z,4.00
2022-08-22T03:48:56.193Z,4.00
2022-08-22T03:49:59.475Z,8.00
2022-08-22T03:50:56.215Z,8.00
2022-08-22T03:51:56.161Z,4.00
2022-08-22T03:52:56.194Z,12.00
2022-08-22T03:53:56.190Z,12.00
2022-08-22T03:54:56.167Z,12.00
2022-08-22T03:55:56.154Z,16.00
2022-08-22T03:56:57.549Z,20.00
2022-08-22T03:57:56.133Z,16.00
2022-08-22T03:58:56.112Z,20.00
2022-08-22T03:59:56.117Z,28.00
2022-08-22T04:00:56.168Z,28.00
2022-08-22T04:01:56.113Z,32.00
2022-08-22T04:02:56.084Z,36.00
2022-08-22T04:03:56.093Z,36.00
2022-08-22T04:04:56.351Z,44.00
2022-08-22T04:05:56.084Z,48.00
2022-08-22T04:06:56.368Z,52.00
2022-08-22T04:07:56.157Z,56.00
2022-08-22T04:08:56.045Z,64.00
2022-08-22T04:09:56.067Z,72.00
2022-08-22T04:10:56.037Z,76.00
2022-08-22T04:11:56.044Z,80.00
2022-08-22T04:12:56.071Z,88.00
2022-08-22T04:13:56.053Z,96.00
2022-08-22T04:14:56.029Z,104.00
2022-08-22T04:15:56.012Z,112.00
2022-08-22T04:16:56.020Z,120.00
2022-08-22T04:17:55.969Z,128.00
2022-08-22T04:18:56.034Z,136.00
2022-08-22T04:19:55.977Z,152.00
2022-08-22T04:20:55.976Z,160.00
2022-08-22T04:21:56.000Z,172.00
2022-08-22T04:22:56.000Z,180.00
2022-08-22T04:23:55.973Z,192.00
2022-08-22T04:24:55.997Z,204.00
2022-08-22T04:25:55.951Z,216.00
2022-08-22T04:26:55.986Z,228.00
2022-08-22T04:27:56.060Z,240.00
2022-08-22T04:28:55.908Z,256.00
2022-08-22T04:29:55.899Z,272.00
2022-08-22T04:30:55.909Z,288.00
2022-08-22T04:31:55.925Z,304.00
2022-08-22T04:32:55.883Z,324.00
2022-08-22T04:33:55.909Z,340.00
2022-08-22T04:34:56.071Z,356.00
2022-08-22T04:35:55.910Z,376.00
2022-08-22T04:36:55.884Z,400.00
2022-08-22T04:37:55.930Z,420.00
2022-08-22T04:38:55.891Z,444.00
2022-08-22T04:39:55.998Z,464.00
2022-08-22T04:40:55.819Z,488.00
2022-08-22T04:42:00.708Z,508.00
2022-08-22T04:42:56.063Z,532.00
2022-08-22T04:43:55.817Z,560.00
2022-08-22T04:44:55.827Z,600.00
2022-08-22T04:45:55.806Z,644.00
2022-08-22T04:46:55.817Z,728.00
2022-08-22T04:47:55.908Z,916.00
2022-08-22T04:48:55.802Z,1120.00
2022-08-22T04:49:55.782Z,1228.00
2022-08-22T04:50:55.789Z,1188.00
2022-08-22T04:51:55.758Z,1168.00
2022-08-22T04:52:55.760Z,1048.00
2022-08-22T04:53:55.738Z,1052.00
2022-08-22T04:54:55.737Z,1112.00
2022-08-22T04:55:55.774Z,1196.00
2022-08-22T04:56:55.716Z,1268.00
2022-08-22T04:57:55.796Z,1376.00
2022-08-22T04:58:55.786Z,1480.00
2022-08-22T04:59:55.695Z,1600.00
2022-08-22T05:00:55.761Z,1716.00
2022-08-22T05:01:55.818Z,1832.00
2022-08-22T05:02:55.713Z,1976.00
2022-08-22T05:03:55.731Z,2052.00
2022-08-22T05:04:55.654Z,2064.00
2022-08-22T05:05:55.672Z,2084.00
2022-08-22T05:06:55.637Z,2104.00
2022-08-22T05:07:55.775Z,2152.00
2022-08-22T05:08:55.630Z,2048.00
2022-08-22T05:09:55.657Z,1964.00
2022-08-22T05:10:55.625Z,1940.00
2022-08-22T05:11:55.610Z,1960.00
2022-08-22T05:12:55.591Z,1968.00
2022-08-22T05:13:55.832Z,1904.00
2022-08-22T05:14:55.616Z,2012.00
2022-08-22T05:15:55.585Z,2100.00
2022-08-22T05:16:55.588Z,2120.00
2022-08-22T05:17:55.673Z,2148.00
2022-08-22T05:18:55.774Z,2400.00
2022-08-22T05:19:55.586Z,2464.00
2022-08-22T05:20:55.547Z,2584.00
2022-08-22T05:21:55.542Z,2996.00
2022-08-22T05:22:55.549Z,3456.00
2022-08-22T05:23:55.820Z,3496.00
2022-08-22T05:24:55.532Z,3512.00
2022-08-22T05:25:55.539Z,3548.00
2022-08-22T05:26:55.535Z,3608.00
2022-08-22T05:27:57.001Z,3480.00
2022-08-22T05:28:55.491Z,3372.00
2022-08-22T05:29:55.494Z,3640.00
2022-08-22T05:30:55.505Z,3740.00
2022-08-22T05:31:55.514Z,3988.00
2022-08-22T05:32:55.487Z,3880.00
2022-08-22T05:33:55.617Z,4004.00
2022-08-22T05:34:55.476Z,4136.00
2022-08-22T05:35:57.868Z,3912.00
2022-08-22T05:36:55.531Z,4008.00
2022-08-22T05:37:55.537Z,4288.00
2022-08-22T05:38:55.453Z,4508.00
2022-08-22T05:39:55.513Z,4728.00
2022-08-22T05:40:55.446Z,4668.00
2022-08-22T05:41:55.451Z,4852.00
2022-08-22T05:42:55.418Z,4936.00
2022-08-22T05:43:55.413Z,5020.00
2022-08-22T05:44:55.464Z,5088.00
2022-08-22T05:45:55.401Z,5156.00
2022-08-22T05:46:55.399Z,5164.00
2022-08-22T05:47:58.119Z,5140.00
2022-08-22T05:48:55.404Z,4900.00
2022-08-22T05:49:55.406Z,4984.00
2022-08-22T05:50:55.392Z,5252.00
2022-08-22T05:51:55.379Z,5272.00
2022-08-22T05:52:55.383Z,5212.00
2022-08-22T05:53:55.364Z,5092.00
2022-08-22T05:54:55.577Z,5168.00
2022-08-22T05:55:55.362Z,5164.00
2022-08-22T05:56:55.427Z,5272.00
2022-08-22T05:57:55.374Z,5340.00
2022-08-22T05:58:55.341Z,5396.00
2022-08-22T05:59:55.322Z,5480.00
2022-08-22T06:00:55.350Z,5512.00
2022-08-22T06:01:55.356Z,5392.00
2022-08-22T06:02:55.311Z,5508.00
2022-08-22T06:03:55.302Z,5260.00
2022-08-22T06:04:55.298Z,5304.00
2022-08-22T06:05:55.283Z,5560.00
2022-08-22T06:06:55.286Z,5572.00
2022-08-22T06:07:55.355Z,5564.00
2022-08-22T06:08:55.478Z,5652.00
2022-08-22T06:09:55.271Z,5844.00
2022-08-22T06:10:55.266Z,5836.00
2022-08-22T06:11:55.267Z,5796.00
2022-08-22T06:12:55.269Z,5764.00
2022-08-22T06:13:55.280Z,5724.00
2022-08-22T06:14:55.253Z,5856.00
2022-08-22T06:15:55.230Z,5936.00
2022-08-22T06:16:55.237Z,6036.00
2022-08-22T06:17:55.340Z,6076.00
2022-08-22T06:18:55.210Z,5992.00
2022-08-22T06:19:55.222Z,5968.00
2022-08-22T06:20:55.234Z,5764.00
2022-08-22T06:21:55.227Z,5560.00
2022-08-22T06:22:55.211Z,5364.00
2022-08-22T06:23:55.202Z,5324.00
2022-08-22T06:24:55.188Z,5400.00
2022-08-22T06:25:55.284Z,5580.00
2022-08-22T06:26:55.195Z,5764.00
2022-08-22T06:27:55.213Z,5748.00
2022-08-22T06:28:55.871Z,6148.00
2022-08-22T06:29:55.163Z,5952.00
2022-08-22T06:30:55.183Z,5936.00
2022-08-22T06:31:55.207Z,6000.00
2022-08-22T06:33:00.248Z,6340.00
2022-08-22T06:33:55.172Z,6344.00
2022-08-22T06:34:55.210Z,6296.00
2022-08-22T06:35:55.159Z,6496.00
2022-08-22T06:36:55.147Z,6364.00
2022-08-22T06:37:55.187Z,6476.00
2022-08-22T06:38:55.116Z,6608.00
2022-08-22T06:39:55.162Z,6748.00
2022-08-22T06:40:55.146Z,6812.00
2022-08-22T06:41:55.149Z,6848.00
2022-08-22T06:42:55.346Z,6992.00
2022-08-22T06:43:55.120Z,7108.00
2022-08-22T06:44:55.102Z,7292.00
2022-08-22T06:45:55.094Z,7392.00
2022-08-22T06:46:55.091Z,7360.00
2022-08-22T06:47:58.026Z,7384.00
2022-08-22T06:48:55.075Z,7300.00
2022-08-22T06:49:55.049Z,7308.00
2022-08-22T06:50:55.065Z,7328.00
2022-08-22T06:51:55.097Z,7504.00
2022-08-22T06:52:55.106Z,7612.00
2022-08-22T06:53:55.051Z,7660.00
2022-08-22T06:54:55.451Z,7776.00
2022-08-22T06:55:55.097Z,7904.00
2022-08-22T06:56:55.043Z,8076.00
2022-08-22T06:57:55.111Z,8180.00
2022-08-22T06:58:55.076Z,8236.00
2022-08-22T06:59:55.022Z,8272.00
2022-08-22T07:01:11.955Z,8304.00
2022-08-22T07:01:55.131Z,8312.00
2022-08-22T07:02:55.008Z,8304.00
2022-08-22T07:03:54.994Z,8288.00
2022-08-22T07:04:55.031Z,8308.00
2022-08-22T07:05:55.153Z,8296.00
2022-08-22T07:06:55.029Z,8344.00
2022-08-22T07:07:55.054Z,8300.00
2022-08-22T07:08:54.996Z,8300.00
2022-08-22T07:09:55.035Z,8196.00
2022-08-22T07:10:55.014Z,8112.00
2022-08-22T07:11:54.969Z,8108.00
2022-08-22T07:12:54.977Z,8240.00
2022-08-22T07:13:54.983Z,8156.00
2022-08-22T07:14:54.970Z,8196.00
2022-08-22T07:15:55.008Z,8076.00
2022-08-22T07:16:55.171Z,8280.00
2022-08-22T07:17:55.247Z,8348.00
2022-08-22T07:18:54.958Z,8216.00
2022-08-22T07:19:54.953Z,8168.00
2022-08-22T07:20:55.232Z,8380.00
2022-08-22T07:21:54.915Z,8416.00
2022-08-22T07:22:54.915Z,8552.00
2022-08-22T07:23:54.928Z,8584.00
2022-08-22T07:24:54.942Z,8524.00
2022-08-22T07:25:54.941Z,8660.00
2022-08-22T07:26:54.911Z,8724.00
2022-08-22T07:27:54.959Z,8588.00
2022-08-22T07:28:58.442Z,8488.00
2022-08-22T07:29:55.153Z,8316.00
2022-08-22T07:30:54.903Z,8240.00
2022-08-22T07:31:54.912Z,8396.00
2022-08-22T07:32:54.926Z,8228.00
2022-08-22T07:33:54.883Z,8476.00
2022-08-22T07:34:54.905Z,8564.00
2022-08-22T07:35:54.916Z,8508.00
2022-08-22T07:36:54.910Z,8360.00
2022-08-22T07:37:54.932Z,8364.00
2022-08-22T07:38:54.873Z,8276.00
2022-08-22T07:39:54.960Z,8580.00
2022-08-22T07:40:54.853Z,8704.00
2022-08-22T07:41:54.867Z,8756.00
2022-08-22T07:42:54.882Z,8816.00
2022-08-22T07:43:54.834Z,8672.00
2022-08-22T07:44:54.864Z,8472.00
2022-08-22T07:45:54.835Z,8024.00
2022-08-22T07:46:54.828Z,7768.00
2022-08-22T07:47:54.906Z,7828.00
2022-08-22T07:49:08.693Z,7988.00
2022-08-22T07:49:54.861Z,7804.00
2022-08-22T07:50:54.831Z,7848.00
2022-08-22T07:51:54.816Z,7888.00
2022-08-22T07:52:54.790Z,8380.00
2022-08-22T07:53:57.987Z,8484.00
2022-08-22T07:54:54.820Z,8608.00
2022-08-22T07:55:54.805Z,8848.00
2022-08-22T07:56:54.799Z,9232.00
2022-08-22T07:57:54.872Z,9152.00
2022-08-22T07:58:54.788Z,8936.00
2022-08-22T07:59:54.805Z,9048.00
2022-08-22T08:00:54.863Z,9316.00
2022-08-22T08:01:54.962Z,9268.00
2022-08-22T08:02:54.822Z,9548.00
2022-08-22T08:03:54.765Z,9708.00
2022-08-22T08:04:54.815Z,9832.00
2022-08-22T08:05:54.791Z,9792.00
2022-08-22T08:06:54.780Z,9772.00
2022-08-22T08:07:54.863Z,9844.00
2022-08-22T08:08:54.761Z,9932.00
2022-08-22T08:09:54.743Z,10012.00
2022-08-22T08:10:54.773Z,10084.00
2022-08-22T08:11:54.774Z,10188.00
2022-08-22T08:13:02.305Z,10252.00
2022-08-22T08:13:54.808Z,10392.00
2022-08-22T08:14:54.800Z,10420.00
2022-08-22T08:15:54.766Z,10404.00
2022-08-22T08:16:54.770Z,10552.00
2022-08-22T08:17:54.791Z,10696.00
2022-08-22T08:18:54.737Z,10680.00
2022-08-22T08:19:54.748Z,10880.00
2022-08-22T08:20:54.730Z,10952.00
2022-08-22T08:21:54.760Z,20128.00
2022-08-22T08:22:54.737Z,44416.00
2022-08-22T08:23:54.743Z,57120.00
2022-08-22T08:24:54.748Z,58400.00
2022-08-22T08:25:54.761Z,60416.00
2022-08-22T08:26:54.734Z,63776.00
2022-08-22T08:27:54.743Z,65824.00
2022-08-22T08:28:54.744Z,67488.00
2022-08-22T08:29:54.731Z,63488.00
2022-08-22T08:30:54.739Z,56384.00
2022-08-22T08:31:54.735Z,31744.00
2022-08-22T08:32:57.576Z,12292.00
2022-08-22T08:33:54.748Z,11576.00
2022-08-22T08:34:54.753Z,11664.00
2022-08-22T08:36:03.539Z,11872.00
2022-08-22T08:36:54.749Z,12760.00
2022-08-22T08:37:54.802Z,24096.00
2022-08-22T08:38:54.778Z,44416.00
2022-08-22T08:39:55.006Z,61376.00
2022-08-22T08:40:54.787Z,66816.00
2022-08-22T08:41:54.738Z,66656.00
2022-08-22T08:42:54.780Z,59968.00
2022-08-22T08:43:54.757Z,54144.00
2022-08-22T08:44:54.801Z,49344.00
2022-08-22T08:45:56.437Z,51168.00
2022-08-22T08:46:55.559Z,50656.00
2022-08-22T08:47:54.830Z,39616.00
2022-08-22T08:48:54.765Z,37184.00
2022-08-22T08:49:54.777Z,37408.00
2022-08-22T08:50:54.754Z,31552.00
2022-08-22T08:51:54.761Z,36928.00
2022-08-22T08:52:54.755Z,29984.00
2022-08-22T08:53:54.790Z,20256.00
2022-08-22T08:54:54.773Z,16672.00
2022-08-22T08:55:54.755Z,22080.00
2022-08-22T08:56:54.792Z,23968.00
2022-08-22T08:57:54.767Z,22240.00
2022-08-22T08:58:54.767Z,14588.00
2022-08-22T08:59:54.775Z,11080.00
2022-08-22T09:00:54.814Z,10484.00
2022-08-22T09:01:54.772Z,10212.00
2022-08-22T09:02:54.783Z,10224.00
2022-08-22T09:03:54.762Z,10324.00
2022-08-22T09:04:54.814Z,10388.00
2022-08-22T09:05:54.773Z,10332.00
2022-08-22T09:06:56.850Z,10292.00
2022-08-22T09:07:54.811Z,10320.00
2022-08-22T09:08:55.886Z,10264.00
2022-08-22T09:09:54.817Z,10348.00
2022-08-22T09:10:54.788Z,10176.00
2022-08-22T09:11:54.767Z,9908.00
2022-08-22T09:13:11.661Z,9748.00
2022-08-22T09:13:54.788Z,9612.00
2022-08-22T09:14:54.765Z,9500.00
2022-08-22T09:16:02.266Z,9280.00
2022-08-22T09:16:54.744Z,8968.00
2022-08-22T09:17:54.808Z,8856.00
2022-08-22T09:18:54.788Z,8752.00
2022-08-22T09:19:54.764Z,8632.00
2022-08-22T09:21:45.614Z,8256.00
2022-08-22T09:23:33.105Z,8092.00
2022-08-22T09:24:33.060Z,7948.00
2022-08-22T09:25:36.813Z,7908.00
2022-08-22T09:26:33.082Z,7696.00
2022-08-22T09:27:33.047Z,7680.00
2022-08-22T09:28:33.240Z,7628.00
2022-08-22T09:29:33.041Z,7484.00
2022-08-22T09:30:33.054Z,7164.00
2022-08-22T09:31:47.978Z,6876.00
2022-08-22T09:32:33.143Z,6700.00
2022-08-22T09:33:33.033Z,6732.00
2022-08-22T09:34:33.095Z,6692.00
2022-08-22T09:35:33.065Z,6640.00
2022-08-22T09:36:33.239Z,6596.00
2022-08-22T09:37:33.064Z,6732.00
2022-08-22T09:38:33.046Z,6608.00
2022-08-22T09:39:33.065Z,6636.00
2022-08-22T09:40:33.067Z,6216.00
2022-08-22T09:41:33.037Z,5972.00
2022-08-22T09:42:33.053Z,5572.00
2022-08-22T09:43:33.686Z,5664.00
2022-08-22T09:44:33.064Z,5652.00
2022-08-22T09:45:33.033Z,5596.00
2022-08-22T09:46:36.901Z,5956.00
2022-08-22T09:47:33.243Z,6332.00
2022-08-22T09:48:33.066Z,6464.00
2022-08-22T09:49:33.077Z,6592.00
2022-08-22T09:50:33.033Z,5852.00
2022-08-22T09:51:33.486Z,6888.00
2022-08-22T09:52:36.202Z,5808.00
2022-08-22T09:53:33.053Z,5776.00
2022-08-22T09:54:33.036Z,5712.00
2022-08-22T09:55:35.258Z,6480.00
2022-08-22T09:56:33.072Z,6788.00
2022-08-22T09:57:33.020Z,7036.00
2022-08-22T09:58:34.283Z,7312.00
2022-08-22T09:59:33.696Z,7376.00
2022-08-22T10:00:33.009Z,7180.00
2022-08-22T10:01:33.321Z,6928.00
2022-08-22T10:02:33.022Z,6780.00
2022-08-22T10:03:33.008Z,7068.00
2022-08-22T10:04:33.005Z,7116.00
2022-08-22T10:05:40.513Z,7204.00
2022-08-22T10:06:33.013Z,7332.00
2022-08-22T10:07:33.013Z,7392.00
2022-08-22T10:08:33.009Z,7436.00
2022-08-22T10:09:33.010Z,7320.00
2022-08-22T10:10:32.986Z,7200.00
2022-08-22T10:11:32.987Z,7292.00
2022-08-22T10:12:36.038Z,7352.00
2022-08-22T10:13:32.984Z,7400.00
2022-08-22T10:14:33.028Z,7348.00
2022-08-22T10:15:33.001Z,7304.00
2022-08-22T10:16:32.979Z,7192.00
2022-08-22T10:17:32.992Z,6908.00
2022-08-22T10:18:32.989Z,6836.00
2022-08-22T10:19:33.019Z,6668.00
2022-08-22T10:20:33.001Z,6636.00
2022-08-22T10:21:32.977Z,6668.00
2022-08-22T10:22:32.988Z,6696.00
2022-08-22T10:23:33.001Z,6656.00
2022-08-22T10:24:32.999Z,6700.00
2022-08-22T10:25:33.148Z,6828.00
2022-08-22T10:26:37.945Z,6812.00
2022-08-22T10:27:33.007Z,6788.00
2022-08-22T10:28:33.009Z,6772.00
2022-08-22T10:29:32.974Z,6764.00
2022-08-22T10:30:33.034Z,6724.00
2022-08-22T10:31:32.995Z,6676.00
2022-08-22T10:32:32.988Z,6684.00
2022-08-22T10:33:32.978Z,6656.00
2022-08-22T10:34:33.071Z,6696.00
2022-08-22T10:35:33.637Z,6752.00
2022-08-22T10:36:32.978Z,6780.00
2022-08-22T10:37:33.026Z,6636.00
2022-08-22T10:38:36.064Z,6584.00
2022-08-22T10:39:33.065Z,6604.00
2022-08-22T10:40:33.001Z,6740.00
2022-08-22T10:41:32.985Z,6868.00
2022-08-22T10:42:35.158Z,6964.00
2022-08-22T10:43:32.989Z,7048.00
2022-08-22T10:44:32.983Z,7112.00
2022-08-22T10:45:36.773Z,7004.00
2022-08-22T10:46:32.992Z,6764.00
2022-08-22T10:47:33.143Z,6528.00
2022-08-22T10:48:32.967Z,6200.00
2022-08-22T10:49:32.966Z,6028.00
2022-08-22T10:50:32.965Z,5940.00
2022-08-22T10:51:32.968Z,5628.00
2022-08-22T10:52:32.969Z,5824.00
2022-08-22T10:53:32.955Z,6132.00
2022-08-22T10:54:32.969Z,6364.00
2022-08-22T10:55:32.971Z,6480.00
2022-08-22T10:56:32.980Z,5136.00
2022-08-22T10:57:33.094Z,5312.00
2022-08-22T10:58:32.985Z,5032.00
2022-08-22T10:59:32.992Z,5064.00
2022-08-22T11:00:33.079Z,4940.00
2022-08-22T11:01:41.848Z,5028.00
2022-08-22T11:02:33.029Z,5048.00
2022-08-22T11:03:33.035Z,4912.00
2022-08-22T11:04:32.981Z,6292.00
2022-08-22T11:05:32.946Z,6232.00
2022-08-22T11:06:32.947Z,6220.00
2022-08-22T11:07:32.970Z,6052.00
2022-08-22T11:08:34.661Z,6028.00
2022-08-22T11:09:36.930Z,5992.00
2022-08-22T11:10:34.923Z,5828.00
2022-08-22T11:11:33.084Z,5556.00
2022-08-22T11:12:34.824Z,4552.00
2022-08-22T11:13:32.961Z,4588.00
2022-08-22T11:14:32.952Z,4596.00
2022-08-22T11:15:35.212Z,5480.00
2022-08-22T11:16:36.679Z,5492.00
2022-08-22T11:17:35.520Z,5460.00
2022-08-22T11:18:32.969Z,5520.00
2022-08-22T11:19:32.965Z,5504.00
2022-08-22T11:20:32.984Z,5608.00
2022-08-22T11:21:32.957Z,5652.00
2022-08-22T11:22:33.005Z,5712.00
2022-08-22T11:23:33.103Z,5752.00
2022-08-22T11:24:35.616Z,5748.00
2022-08-22T11:25:38.864Z,5756.00
2022-08-22T11:26:35.812Z,5728.00
2022-08-22T11:27:37.989Z,5696.00
2022-08-22T11:28:32.932Z,5728.00
2022-08-22T11:29:32.938Z,5720.00
2022-08-22T11:30:36.371Z,5664.00
2022-08-22T11:31:36.621Z,5648.00
2022-08-22T11:32:32.940Z,5632.00
2022-08-22T11:33:46.735Z,5572.00
2022-08-22T11:34:32.937Z,5584.00
2022-08-22T11:35:33.103Z,5588.00
2022-08-22T11:36:32.934Z,5508.00
2022-08-22T11:37:42.981Z,5500.00
2022-08-22T11:38:33.075Z,5540.00
2022-08-22T11:39:32.911Z,5500.00
2022-08-22T11:40:32.907Z,5528.00
2022-08-22T11:41:32.935Z,5356.00
2022-08-22T11:42:33.179Z,5220.00
2022-08-22T11:43:32.891Z,5192.00
2022-08-22T11:44:34.331Z,5228.00
2022-08-22T11:45:32.895Z,5116.00
2022-08-22T11:46:32.936Z,4984.00
2022-08-22T11:47:32.888Z,4848.00
2022-08-22T11:48:32.922Z,4084.00
2022-08-22T11:49:33.102Z,4516.00
2022-08-22T11:50:32.911Z,4740.00
2022-08-22T11:51:34.329Z,4608.00
2022-08-22T11:52:32.943Z,4492.00
2022-08-22T11:53:32.903Z,4732.00
2022-08-22T11:54:32.915Z,4692.00
2022-08-22T11:55:34.514Z,4584.00
2022-08-22T11:56:32.916Z,4708.00
2022-08-22T11:57:32.920Z,4804.00
2022-08-22T11:58:32.914Z,5004.00
2022-08-22T11:59:32.873Z,5068.00
2022-08-22T12:00:33.206Z,5152.00
2022-08-22T12:01:34.163Z,5172.00
2022-08-22T12:02:32.929Z,5216.00
2022-08-22T12:03:32.882Z,5340.00
2022-08-22T12:04:32.891Z,5384.00
2022-08-22T12:05:32.872Z,5396.00
2022-08-22T12:06:34.702Z,5408.00
2022-08-22T12:07:32.875Z,5204.00
2022-08-22T12:08:32.888Z,5180.00
2022-08-22T12:09:33.831Z,4608.00
2022-08-22T12:10:32.857Z,4492.00
2022-08-22T12:11:32.884Z,4156.00
2022-08-22T12:12:32.920Z,3928.00
2022-08-22T12:13:34.741Z,3672.00
2022-08-22T12:14:32.891Z,3628.00
2022-08-22T12:15:33.488Z,3720.00
2022-08-22T12:16:33.195Z,4144.00
2022-08-22T12:17:55.960Z,4272.00
2022-08-22T12:18:32.856Z,4208.00
2022-08-22T12:19:33.127Z,3960.00
2022-08-22T12:20:32.832Z,3976.00
2022-08-22T12:21:32.841Z,4012.00
2022-08-22T12:22:32.830Z,4068.00
2022-08-22T12:23:48.780Z,4048.00
2022-08-22T12:24:32.847Z,4076.00
2022-08-22T12:25:32.839Z,4092.00
2022-08-22T12:26:32.839Z,4100.00
2022-08-22T12:27:32.823Z,4124.00
2022-08-22T12:28:32.835Z,4156.00
2022-08-22T12:29:33.796Z,4188.00